sensor_id;sensor_type;location;lat;lon;timestamp;temperature;humidity
23579;DHT22;11967;50.852;4.400;2022-10-16T00:01:25;16.70;99.90
23579;DHT22;11967;50.852;4.400;2022-10-16T00:03:52;16.70;99.90
23579;DHT22;11967;50.852;4.400;2022-10-16T00:06:19;16.70;99.90
23579;DHT22;11967;50.852;4.400;2022-10-16T00:08:46;16.60;99.90
23579;DHT22;11967;50.852;4.400;2022-10-16T00:11:20;16.60;99.90
23579;DHT22;11967;50.852;4.400;2022-10-16T00:13:47;16.70;99.90
23579;DHT22;11967;50.852;4.400;2022-10-16T00:16:14;16.70;99.90
23579;DHT22;11967;50.852;4.400;2022-10-16T00:18:40;16.60;99.90
23579;DHT22;11967;50.852;4.400;2022-10-16T00:21:11;16.60;99.90
23579;DHT22;11967;50.852;4.400;2022-10-16T00:23:37;16.60;99.90
23579;DHT22;11967;50.852;4.400;2022-10-16T00:26:06;16.70;99.90
23579;DHT22;11967;50.852;4.400;2022-10-16T00:28:32;16.70;99.90
23579;DHT22;11967;50.852;4.400;2022-10-16T00:30:58;16.70;99.90
23579;DHT22;11967;50.852;4.400;2022-10-16T00:33:23;16.70;99.90
23579;DHT22;11967;50.852;4.400;2022-10-16T00:35:49;16.60;99.90
23579;DHT22;11967;50.852;4.400;2022-10-16T00:38:16;16.70;99.90
23579;DHT22;11967;50.852;4.400;2022-10-16T00:40:41;16.60;99.90
23579;DHT22;11967;50.852;4.400;2022-10-16T00:43:34;16.60;99.90
23579;DHT22;11967;50.852;4.400;2022-10-16T00:46:02;16.60;99.90
23579;DHT22;11967;50.852;4.400;2022-10-16T00:48:28;16.70;99.90
23579;DHT22;11967;50.852;4.400;2022-10-16T00:50:54;16.60;99.90
23579;DHT22;11967;50.852;4.400;2022-10-16T00:53:21;16.60;99.90
23579;DHT22;11967;50.852;4.400;2022-10-16T00:55:47;16.70;99.90
23579;DHT22;11967;50.852;4.400;2022-10-16T00:58:13;16.70;99.90
23579;DHT22;11967;50.852;4.400;2022-10-16T01:00:39;16.60;99.90
23579;DHT22;11967;50.852;4.400;2022-10-16T01:03:26;16.50;99.90
23579;DHT22;11967;50.852;4.400;2022-10-16T01:14:36;16.50;99.90
23579;DHT22;11967;50.852;4.400;2022-10-16T01:17:06;16.50;99.90
23579;DHT22;11967;50.852;4.400;2022-10-16T01:19:51;16.50;99.90
23579;DHT22;11967;50.852;4.400;2022-10-16T01:22:20;16.50;99.90
23579;DHT22;11967;50.852;4.400;2022-10-16T01:24:50;16.50;99.90
23579;DHT22;11967;50.852;4.400;2022-10-16T01:32:57;16.40;99.90
23579;DHT22;11967;50.852;4.400;2022-10-16T01:35:35;16.40;99.90
23579;DHT22;11967;50.852;4.400;2022-10-16T01:38:16;16.40;99.90
23579;DHT22;11967;50.852;4.400;2022-10-16T01:40:47;16.40;99.90
23579;DHT22;11967;50.852;4.400;2022-10-16T01:43:19;16.40;99.90
23579;DHT22;11967;50.852;4.400;2022-10-16T01:45:46;16.40;99.90
23579;DHT22;11967;50.852;4.400;2022-10-16T01:48:16;16.40;99.90
23579;DHT22;11967;50.852;4.400;2022-10-16T01:50:44;16.40;99.90
23579;DHT22;11967;50.852;4.400;2022-10-16T01:53:14;16.40;99.90
23579;DHT22;11967;50.852;4.400;2022-10-16T01:55:43;16.40;99.90
23579;DHT22;11967;50.852;4.400;2022-10-16T01:58:13;16.50;99.90
23579;DHT22;11967;50.852;4.400;2022-10-16T02:00:41;16.50;99.90
23579;DHT22;11967;50.852;4.400;2022-10-16T02:03:09;16.40;99.90
23579;DHT22;11967;50.852;4.400;2022-10-16T02:08:14;16.40;99.90
23579;DHT22;11967;50.852;4.400;2022-10-16T02:10:40;16.40;99.90
23579;DHT22;11967;50.852;4.400;2022-10-16T02:13:10;16.40;99.90
23579;DHT22;11967;50.852;4.400;2022-10-16T02:15:36;16.40;99.90
23579;DHT22;11967;50.852;4.400;2022-10-16T02:18:03;16.30;99.90
23579;DHT22;11967;50.852;4.400;2022-10-16T02:20:35;16.40;99.90
23579;DHT22;11967;50.852;4.400;2022-10-16T02:23:03;16.30;99.90
23579;DHT22;11967;50.852;4.400;2022-10-16T02:25:35;16.30;99.90
23579;DHT22;11967;50.852;4.400;2022-10-16T02:28:10;16.30;99.90
23579;DHT22;11967;50.852;4.400;2022-10-16T02:30:54;16.30;99.90
23579;DHT22;11967;50.852;4.400;2022-10-16T02:33:21;16.40;99.90
23579;DHT22;11967;50.852;4.400;2022-10-16T02:35:49;16.30;99.90
23579;DHT22;11967;50.852;4.400;2022-10-16T02:38:17;16.30;99.90
23579;DHT22;11967;50.852;4.400;2022-10-16T02:40:44;16.30;99.90
23579;DHT22;11967;50.852;4.400;2022-10-16T02:43:10;16.30;99.90
23579;DHT22;11967;50.852;4.400;2022-10-16T02:45:36;16.30;99.90
23579;DHT22;11967;50.852;4.400;2022-10-16T02:48:01;16.30;99.90
23579;DHT22;11967;50.852;4.400;2022-10-16T02:50:27;16.30;99.90
23579;DHT22;11967;50.852;4.400;2022-10-16T02:52:52;16.30;99.90
23579;DHT22;11967;50.852;4.400;2022-10-16T02:55:18;16.20;99.90
23579;DHT22;11967;50.852;4.400;2022-10-16T02:57:47;16.20;99.90
23579;DHT22;11967;50.852;4.400;2022-10-16T03:00:14;16.20;99.90
23579;DHT22;11967;50.852;4.400;2022-10-16T03:02:40;16.20;99.90
23579;DHT22;11967;50.852;4.400;2022-10-16T03:05:07;16.20;99.90
23579;DHT22;11967;50.852;4.400;2022-10-16T03:07:33;16.20;99.90
23579;DHT22;11967;50.852;4.400;2022-10-16T03:09:59;16.20;99.90
23579;DHT22;11967;50.852;4.400;2022-10-16T03:12:28;16.20;99.90
23579;DHT22;11967;50.852;4.400;2022-10-16T03:14:55;16.20;99.90
23579;DHT22;11967;50.852;4.400;2022-10-16T03:17:22;16.10;99.90
23579;DHT22;11967;50.852;4.400;2022-10-16T03:19:48;16.20;99.90
23579;DHT22;11967;50.852;4.400;2022-10-16T03:22:13;16.10;99.90
23579;DHT22;11967;50.852;4.400;2022-10-16T03:24:39;16.00;99.90
23579;DHT22;11967;50.852;4.400;2022-10-16T03:27:05;16.10;99.90
23579;DHT22;11967;50.852;4.400;2022-10-16T03:29:30;16.20;99.90
23579;DHT22;11967;50.852;4.400;2022-10-16T03:31:57;16.20;99.90
23579;DHT22;11967;50.852;4.400;2022-10-16T03:34:23;16.30;99.90
23579;DHT22;11967;50.852;4.400;2022-10-16T03:36:49;16.30;99.90
23579;DHT22;11967;50.852;4.400;2022-10-16T03:39:15;16.30;99.90
23579;DHT22;11967;50.852;4.400;2022-10-16T03:41:41;16.30;99.90
23579;DHT22;11967;50.852;4.400;2022-10-16T03:44:06;16.30;99.90
23579;DHT22;11967;50.852;4.400;2022-10-16T03:46:32;16.20;99.90
23579;DHT22;11967;50.852;4.400;2022-10-16T03:48:58;16.30;99.90
23579;DHT22;11967;50.852;4.400;2022-10-16T03:51:23;16.20;99.90
23579;DHT22;11967;50.852;4.400;2022-10-16T03:53:49;16.20;99.90
23579;DHT22;11967;50.852;4.400;2022-10-16T03:56:15;16.20;99.90
23579;DHT22;11967;50.852;4.400;2022-10-16T03:58:40;16.20;99.90
23579;DHT22;11967;50.852;4.400;2022-10-16T04:01:06;16.20;99.90
23579;DHT22;11967;50.852;4.400;2022-10-16T04:03:32;16.20;99.90
23579;DHT22;11967;50.852;4.400;2022-10-16T04:05:57;16.30;99.90
23579;DHT22;11967;50.852;4.400;2022-10-16T04:08:23;16.20;99.90
23579;DHT22;11967;50.852;4.400;2022-10-16T04:10:49;16.30;99.90
23579;DHT22;11967;50.852;4.400;2022-10-16T04:13:14;16.20;99.90
23579;DHT22;11967;50.852;4.400;2022-10-16T04:15:40;16.10;99.90
23579;DHT22;11967;50.852;4.400;2022-10-16T04:18:06;16.10;99.90
23579;DHT22;11967;50.852;4.400;2022-10-16T04:20:32;16.20;99.90
23579;DHT22;11967;50.852;4.400;2022-10-16T04:22:59;16.10;99.90
23579;DHT22;11967;50.852;4.400;2022-10-16T04:25:25;16.10;99.90
23579;DHT22;11967;50.852;4.400;2022-10-16T04:27:53;16.10;99.90
23579;DHT22;11967;50.852;4.400;2022-10-16T04:30:19;16.20;99.90
23579;DHT22;11967;50.852;4.400;2022-10-16T04:32:51;16.10;99.90
23579;DHT22;11967;50.852;4.400;2022-10-16T04:35:18;16.20;99.90
23579;DHT22;11967;50.852;4.400;2022-10-16T04:37:44;16.20;99.90
23579;DHT22;11967;50.852;4.400;2022-10-16T04:40:10;16.20;99.90
23579;DHT22;11967;50.852;4.400;2022-10-16T04:42:36;16.20;99.90
23579;DHT22;11967;50.852;4.400;2022-10-16T04:45:02;16.20;99.90
23579;DHT22;11967;50.852;4.400;2022-10-16T04:47:28;16.30;99.90
23579;DHT22;11967;50.852;4.400;2022-10-16T04:49:54;16.20;99.90
23579;DHT22;11967;50.852;4.400;2022-10-16T04:52:19;16.20;99.90
23579;DHT22;11967;50.852;4.400;2022-10-16T04:54:46;16.10;99.90
23579;DHT22;11967;50.852;4.400;2022-10-16T04:57:12;16.10;99.90
23579;DHT22;11967;50.852;4.400;2022-10-16T04:59:38;16.10;99.90
23579;DHT22;11967;50.852;4.400;2022-10-16T05:02:03;16.00;99.90
23579;DHT22;11967;50.852;4.400;2022-10-16T05:04:29;16.10;99.90
23579;DHT22;11967;50.852;4.400;2022-10-16T05:06:55;16.10;99.90
23579;DHT22;11967;50.852;4.400;2022-10-16T05:09:20;16.00;99.90
23579;DHT22;11967;50.852;4.400;2022-10-16T05:11:46;16.00;99.90
23579;DHT22;11967;50.852;4.400;2022-10-16T05:14:11;16.00;99.90
23579;DHT22;11967;50.852;4.400;2022-10-16T05:16:37;16.00;99.90
23579;DHT22;11967;50.852;4.400;2022-10-16T05:19:03;16.10;99.90
23579;DHT22;11967;50.852;4.400;2022-10-16T05:21:28;16.00;99.90
23579;DHT22;11967;50.852;4.400;2022-10-16T05:23:54;16.00;99.90
23579;DHT22;11967;50.852;4.400;2022-10-16T05:26:20;16.00;99.90
23579;DHT22;11967;50.852;4.400;2022-10-16T05:28:46;16.00;99.90
23579;DHT22;11967;50.852;4.400;2022-10-16T05:31:11;15.90;99.90
23579;DHT22;11967;50.852;4.400;2022-10-16T05:33:37;15.90;99.90
23579;DHT22;11967;50.852;4.400;2022-10-16T05:36:05;15.80;99.90
23579;DHT22;11967;50.852;4.400;2022-10-16T05:38:31;15.90;99.90
23579;DHT22;11967;50.852;4.400;2022-10-16T05:40:57;15.90;99.90
23579;DHT22;11967;50.852;4.400;2022-10-16T05:43:23;15.90;99.90
23579;DHT22;11967;50.852;4.400;2022-10-16T05:46:00;15.90;99.90
23579;DHT22;11967;50.852;4.400;2022-10-16T05:48:26;16.00;99.90
23579;DHT22;11967;50.852;4.400;2022-10-16T05:51:04;16.00;99.90
23579;DHT22;11967;50.852;4.400;2022-10-16T05:53:32;15.90;99.90
23579;DHT22;11967;50.852;4.400;2022-10-16T05:55:58;15.90;99.90
23579;DHT22;11967;50.852;4.400;2022-10-16T05:58:25;15.90;99.90
23579;DHT22;11967;50.852;4.400;2022-10-16T06:01:02;15.90;99.90
23579;DHT22;11967;50.852;4.400;2022-10-16T06:03:28;15.90;99.90
23579;DHT22;11967;50.852;4.400;2022-10-16T06:05:54;15.90;99.90
23579;DHT22;11967;50.852;4.400;2022-10-16T06:08:21;15.90;99.90
23579;DHT22;11967;50.852;4.400;2022-10-16T06:10:47;16.00;99.90
23579;DHT22;11967;50.852;4.400;2022-10-16T06:13:14;16.00;99.90
23579;DHT22;11967;50.852;4.400;2022-10-16T06:15:42;16.00;99.90
23579;DHT22;11967;50.852;4.400;2022-10-16T06:18:09;16.10;99.90
23579;DHT22;11967;50.852;4.400;2022-10-16T06:20:35;16.10;99.90
23579;DHT22;11967;50.852;4.400;2022-10-16T06:23:01;15.90;99.90
23579;DHT22;11967;50.852;4.400;2022-10-16T06:25:27;15.90;99.90
23579;DHT22;11967;50.852;4.400;2022-10-16T06:27:52;16.00;99.90
23579;DHT22;11967;50.852;4.400;2022-10-16T06:30:18;16.00;99.90
23579;DHT22;11967;50.852;4.400;2022-10-16T06:32:43;16.00;99.90
23579;DHT22;11967;50.852;4.400;2022-10-16T06:35:09;15.90;99.90
23579;DHT22;11967;50.852;4.400;2022-10-16T06:37:34;16.00;99.90
23579;DHT22;11967;50.852;4.400;2022-10-16T06:40:00;16.00;99.90
23579;DHT22;11967;50.852;4.400;2022-10-16T06:42:26;16.00;99.90
23579;DHT22;11967;50.852;4.400;2022-10-16T06:44:52;15.90;99.90
23579;DHT22;11967;50.852;4.400;2022-10-16T06:47:17;16.00;99.90
23579;DHT22;11967;50.852;4.400;2022-10-16T06:49:43;16.10;99.90
23579;DHT22;11967;50.852;4.400;2022-10-16T06:52:08;16.00;99.90
23579;DHT22;11967;50.852;4.400;2022-10-16T06:54:34;16.00;99.90
23579;DHT22;11967;50.852;4.400;2022-10-16T06:57:00;16.00;99.90
23579;DHT22;11967;50.852;4.400;2022-10-16T06:59:28;16.00;99.90
23579;DHT22;11967;50.852;4.400;2022-10-16T07:01:53;16.10;99.90
23579;DHT22;11967;50.852;4.400;2022-10-16T07:04:19;16.10;99.90
23579;DHT22;11967;50.852;4.400;2022-10-16T07:06:44;16.20;99.90
23579;DHT22;11967;50.852;4.400;2022-10-16T07:09:11;16.20;99.90
23579;DHT22;11967;50.852;4.400;2022-10-16T07:11:38;16.20;99.90
23579;DHT22;11967;50.852;4.400;2022-10-16T07:14:10;16.20;99.90
23579;DHT22;11967;50.852;4.400;2022-10-16T07:16:37;16.30;99.90
23579;DHT22;11967;50.852;4.400;2022-10-16T07:19:03;16.30;99.90
23579;DHT22;11967;50.852;4.400;2022-10-16T07:21:33;16.30;99.90
23579;DHT22;11967;50.852;4.400;2022-10-16T07:24:01;16.30;99.90
23579;DHT22;11967;50.852;4.400;2022-10-16T07:26:29;16.30;99.90
23579;DHT22;11967;50.852;4.400;2022-10-16T07:28:56;16.30;99.90
23579;DHT22;11967;50.852;4.400;2022-10-16T07:31:22;16.30;99.90
23579;DHT22;11967;50.852;4.400;2022-10-16T07:33:49;16.40;99.90
23579;DHT22;11967;50.852;4.400;2022-10-16T07:36:17;16.40;99.90
23579;DHT22;11967;50.852;4.400;2022-10-16T07:38:43;16.40;99.90
23579;DHT22;11967;50.852;4.400;2022-10-16T07:41:12;16.30;99.90
23579;DHT22;11967;50.852;4.400;2022-10-16T07:43:39;16.20;99.90
23579;DHT22;11967;50.852;4.400;2022-10-16T07:46:04;16.30;99.90
23579;DHT22;11967;50.852;4.400;2022-10-16T07:48:32;16.30;99.90
23579;DHT22;11967;50.852;4.400;2022-10-16T07:51:05;16.40;99.90
23579;DHT22;11967;50.852;4.400;2022-10-16T07:53:31;16.40;99.90
23579;DHT22;11967;50.852;4.400;2022-10-16T07:56:02;16.50;99.90
23579;DHT22;11967;50.852;4.400;2022-10-16T07:58:28;16.50;99.90
23579;DHT22;11967;50.852;4.400;2022-10-16T08:00:54;16.50;99.90
23579;DHT22;11967;50.852;4.400;2022-10-16T08:03:20;16.50;99.90
23579;DHT22;11967;50.852;4.400;2022-10-16T08:05:46;16.40;99.90
23579;DHT22;11967;50.852;4.400;2022-10-16T08:08:13;16.40;99.90
23579;DHT22;11967;50.852;4.400;2022-10-16T08:10:40;16.40;99.90
23579;DHT22;11967;50.852;4.400;2022-10-16T08:13:06;16.50;99.90
23579;DHT22;11967;50.852;4.400;2022-10-16T08:15:32;16.60;99.90
23579;DHT22;11967;50.852;4.400;2022-10-16T08:18:00;16.60;99.90
23579;DHT22;11967;50.852;4.400;2022-10-16T08:20:26;16.60;99.90
23579;DHT22;11967;50.852;4.400;2022-10-16T08:22:52;16.60;99.90
23579;DHT22;11967;50.852;4.400;2022-10-16T08:25:19;16.60;99.90
23579;DHT22;11967;50.852;4.400;2022-10-16T08:27:45;16.50;99.90
23579;DHT22;11967;50.852;4.400;2022-10-16T08:30:11;16.50;99.90
23579;DHT22;11967;50.852;4.400;2022-10-16T08:32:37;16.50;99.90
23579;DHT22;11967;50.852;4.400;2022-10-16T08:35:03;16.50;99.90
23579;DHT22;11967;50.852;4.400;2022-10-16T08:37:32;16.50;99.90
23579;DHT22;11967;50.852;4.400;2022-10-16T08:39:58;16.50;99.90
23579;DHT22;11967;50.852;4.400;2022-10-16T08:45:14;16.60;99.90
23579;DHT22;11967;50.852;4.400;2022-10-16T08:51:02;16.70;99.90
23579;DHT22;11967;50.852;4.400;2022-10-16T08:56:13;16.90;99.90
23579;DHT22;11967;50.852;4.400;2022-10-16T08:58:39;17.00;99.90
23579;DHT22;11967;50.852;4.400;2022-10-16T09:01:12;17.00;99.90
23579;DHT22;11967;50.852;4.400;2022-10-16T09:06:40;17.30;99.90
23579;DHT22;11967;50.852;4.400;2022-10-16T09:12:12;17.60;99.90
23579;DHT22;11967;50.852;4.400;2022-10-16T09:23:11;18.10;99.90
23579;DHT22;11967;50.852;4.400;2022-10-16T09:25:38;18.20;99.90
23579;DHT22;11967;50.852;4.400;2022-10-16T09:28:04;18.30;99.90
23579;DHT22;11967;50.852;4.400;2022-10-16T09:30:30;18.40;99.90
23579;DHT22;11967;50.852;4.400;2022-10-16T09:32:57;18.50;99.90
23579;DHT22;11967;50.852;4.400;2022-10-16T09:35:33;18.60;99.90
23579;DHT22;11967;50.852;4.400;2022-10-16T09:38:03;18.80;99.90
23579;DHT22;11967;50.852;4.400;2022-10-16T09:40:35;18.80;99.90
23579;DHT22;11967;50.852;4.400;2022-10-16T09:45:56;19.00;99.90
23579;DHT22;11967;50.852;4.400;2022-10-16T09:48:26;19.20;99.90
23579;DHT22;11967;50.852;4.400;2022-10-16T09:50:57;19.20;99.90
23579;DHT22;11967;50.852;4.400;2022-10-16T09:53:23;19.40;99.90
23579;DHT22;11967;50.852;4.400;2022-10-16T09:55:53;19.50;99.90
23579;DHT22;11967;50.852;4.400;2022-10-16T09:58:23;19.60;99.90
23579;DHT22;11967;50.852;4.400;2022-10-16T10:00:52;19.70;99.90
23579;DHT22;11967;50.852;4.400;2022-10-16T10:03:40;19.90;99.90
23579;DHT22;11967;50.852;4.400;2022-10-16T10:06:27;20.00;99.90
23579;DHT22;11967;50.852;4.400;2022-10-16T10:08:55;20.00;99.90
23579;DHT22;11967;50.852;4.400;2022-10-16T10:16:53;20.00;99.90
23579;DHT22;11967;50.852;4.400;2022-10-16T10:19:27;20.10;99.90
23579;DHT22;11967;50.852;4.400;2022-10-16T10:21:53;20.30;99.90
23579;DHT22;11967;50.852;4.400;2022-10-16T10:24:19;20.30;99.90
23579;DHT22;11967;50.852;4.400;2022-10-16T10:26:57;20.20;99.90
23579;DHT22;11967;50.852;4.400;2022-10-16T10:32:41;20.20;99.90
23579;DHT22;11967;50.852;4.400;2022-10-16T10:35:27;20.30;99.90
23579;DHT22;11967;50.852;4.400;2022-10-16T10:43:37;20.60;99.90
23579;DHT22;11967;50.852;4.400;2022-10-16T10:46:13;20.50;99.90
23579;DHT22;11967;50.852;4.400;2022-10-16T10:51:44;20.50;99.90
23579;DHT22;11967;50.852;4.400;2022-10-16T10:54:28;20.60;99.90
23579;DHT22;11967;50.852;4.400;2022-10-16T10:57:09;20.70;99.90
23579;DHT22;11967;50.852;4.400;2022-10-16T11:02:45;20.80;99.90
23579;DHT22;11967;50.852;4.400;2022-10-16T11:08:14;20.70;99.90
23579;DHT22;11967;50.852;4.400;2022-10-16T11:10:50;20.70;99.90
23579;DHT22;11967;50.852;4.400;2022-10-16T11:15:47;21.00;99.90
23579;DHT22;11967;50.852;4.400;2022-10-16T11:18:24;21.10;99.90
23579;DHT22;11967;50.852;4.400;2022-10-16T11:20:56;21.10;99.90
23579;DHT22;11967;50.852;4.400;2022-10-16T11:23:29;21.00;99.90
23579;DHT22;11967;50.852;4.400;2022-10-16T11:26:00;21.00;99.90
23579;DHT22;11967;50.852;4.400;2022-10-16T11:28:32;21.00;99.90
23579;DHT22;11967;50.852;4.400;2022-10-16T11:41:28;21.60;99.90
23579;DHT22;11967;50.852;4.400;2022-10-16T11:50:31;21.60;99.90
23579;DHT22;11967;50.852;4.400;2022-10-16T11:53:38;21.60;99.90
23579;DHT22;11967;50.852;4.400;2022-10-16T11:56:07;21.60;99.90
23579;DHT22;11967;50.852;4.400;2022-10-16T11:58:41;21.40;99.90
23579;DHT22;11967;50.852;4.400;2022-10-16T12:03:40;21.20;99.90
23579;DHT22;11967;50.852;4.400;2022-10-16T12:06:25;21.30;99.90
23579;DHT22;11967;50.852;4.400;2022-10-16T12:08:53;21.10;99.90
23579;DHT22;11967;50.852;4.400;2022-10-16T12:11:42;21.10;99.90
23579;DHT22;11967;50.852;4.400;2022-10-16T12:16:56;21.00;99.90
23579;DHT22;11967;50.852;4.400;2022-10-16T12:19:23;21.00;99.90
23579;DHT22;11967;50.852;4.400;2022-10-16T12:21:51;20.90;99.90
23579;DHT22;11967;50.852;4.400;2022-10-16T12:24:37;20.90;99.90
23579;DHT22;11967;50.852;4.400;2022-10-16T12:27:06;20.90;99.90
23579;DHT22;11967;50.852;4.400;2022-10-16T12:29:44;20.80;99.90
23579;DHT22;11967;50.852;4.400;2022-10-16T12:34:57;20.80;99.90
23579;DHT22;11967;50.852;4.400;2022-10-16T12:37:34;20.70;99.90
23579;DHT22;11967;50.852;4.400;2022-10-16T12:40:33;20.60;99.90
23579;DHT22;11967;50.852;4.400;2022-10-16T12:42:57;20.50;99.90
23579;DHT22;11967;50.852;4.400;2022-10-16T12:45:33;20.50;99.90
23579;DHT22;11967;50.852;4.400;2022-10-16T12:48:02;20.40;99.90
23579;DHT22;11967;50.852;4.400;2022-10-16T12:50:37;20.40;99.90
23579;DHT22;11967;50.852;4.400;2022-10-16T12:53:21;20.50;99.90
23579;DHT22;11967;50.852;4.400;2022-10-16T13:01:07;20.40;99.90
23579;DHT22;11967;50.852;4.400;2022-10-16T13:06:38;20.40;99.90
23579;DHT22;11967;50.852;4.400;2022-10-16T13:12:14;20.40;99.90
23579;DHT22;11967;50.852;4.400;2022-10-16T13:28:32;20.40;99.90
23579;DHT22;11967;50.852;4.400;2022-10-16T13:30:59;20.30;99.90
23579;DHT22;11967;50.852;4.400;2022-10-16T13:35:58;20.40;99.90
23579;DHT22;11967;50.852;4.400;2022-10-16T13:38:27;20.30;99.90
23579;DHT22;11967;50.852;4.400;2022-10-16T13:40:56;20.30;99.90
23579;DHT22;11967;50.852;4.400;2022-10-16T13:43:29;20.30;99.90
23579;DHT22;11967;50.852;4.400;2022-10-16T13:46:05;20.30;99.90
23579;DHT22;11967;50.852;4.400;2022-10-16T13:48:33;20.40;99.90
23579;DHT22;11967;50.852;4.400;2022-10-16T13:53:35;20.30;99.90
23579;DHT22;11967;50.852;4.400;2022-10-16T13:56:09;20.30;99.90
23579;DHT22;11967;50.852;4.400;2022-10-16T13:58:35;20.30;99.90
23579;DHT22;11967;50.852;4.400;2022-10-16T14:01:03;20.30;99.90
23579;DHT22;11967;50.852;4.400;2022-10-16T14:03:32;20.20;99.90
23579;DHT22;11967;50.852;4.400;2022-10-16T14:06:03;20.30;99.90
23579;DHT22;11967;50.852;4.400;2022-10-16T14:08:31;20.30;99.90
23579;DHT22;11967;50.852;4.400;2022-10-16T14:10:59;20.30;99.90
23579;DHT22;11967;50.852;4.400;2022-10-16T14:13:31;20.30;99.90
23579;DHT22;11967;50.852;4.400;2022-10-16T14:16:02;20.20;99.90
23579;DHT22;11967;50.852;4.400;2022-10-16T14:18:29;20.20;99.90
23579;DHT22;11967;50.852;4.400;2022-10-16T14:20:55;20.20;99.90
23579;DHT22;11967;50.852;4.400;2022-10-16T14:23:36;20.20;99.90
23579;DHT22;11967;50.852;4.400;2022-10-16T14:28:35;20.00;99.90
23579;DHT22;11967;50.852;4.400;2022-10-16T14:31:16;20.10;99.90
23579;DHT22;11967;50.852;4.400;2022-10-16T14:33:48;20.10;99.90
23579;DHT22;11967;50.852;4.400;2022-10-16T14:36:15;20.10;99.90
23579;DHT22;11967;50.852;4.400;2022-10-16T14:39:06;20.20;99.90
23579;DHT22;11967;50.852;4.400;2022-10-16T14:41:45;20.20;99.90
23579;DHT22;11967;50.852;4.400;2022-10-16T14:44:12;20.20;99.90
23579;DHT22;11967;50.852;4.400;2022-10-16T14:46:39;20.20;99.90
23579;DHT22;11967;50.852;4.400;2022-10-16T14:51:39;20.20;99.90
23579;DHT22;11967;50.852;4.400;2022-10-16T14:54:12;20.20;99.90
23579;DHT22;11967;50.852;4.400;2022-10-16T14:56:50;20.20;99.90
23579;DHT22;11967;50.852;4.400;2022-10-16T14:59:34;20.20;99.90
23579;DHT22;11967;50.852;4.400;2022-10-16T15:04:46;20.10;99.90
23579;DHT22;11967;50.852;4.400;2022-10-16T15:07:12;20.10;99.90
23579;DHT22;11967;50.852;4.400;2022-10-16T15:09:37;20.10;99.90
23579;DHT22;11967;50.852;4.400;2022-10-16T15:12:03;20.10;99.90
23579;DHT22;11967;50.852;4.400;2022-10-16T15:14:28;20.10;99.90
23579;DHT22;11967;50.852;4.400;2022-10-16T15:16:54;20.10;99.90
23579;DHT22;11967;50.852;4.400;2022-10-16T15:19:20;20.10;99.90
23579;DHT22;11967;50.852;4.400;2022-10-16T15:21:48;20.10;99.90
23579;DHT22;11967;50.852;4.400;2022-10-16T15:24:15;20.10;99.90
23579;DHT22;11967;50.852;4.400;2022-10-16T15:26:40;20.10;99.90
23579;DHT22;11967;50.852;4.400;2022-10-16T15:29:07;20.00;99.90
23579;DHT22;11967;50.852;4.400;2022-10-16T15:31:33;20.00;99.90
23579;DHT22;11967;50.852;4.400;2022-10-16T15:33:59;20.00;99.90
23579;DHT22;11967;50.852;4.400;2022-10-16T15:36:31;20.00;99.90
23579;DHT22;11967;50.852;4.400;2022-10-16T15:38:59;20.00;99.90
23579;DHT22;11967;50.852;4.400;2022-10-16T15:41:25;20.00;99.90
23579;DHT22;11967;50.852;4.400;2022-10-16T15:43:51;20.00;99.90
23579;DHT22;11967;50.852;4.400;2022-10-16T15:46:22;19.90;99.90
23579;DHT22;11967;50.852;4.400;2022-10-16T15:48:49;20.00;99.90
23579;DHT22;11967;50.852;4.400;2022-10-16T15:51:15;20.00;99.90
23579;DHT22;11967;50.852;4.400;2022-10-16T15:53:41;20.00;99.90
23579;DHT22;11967;50.852;4.400;2022-10-16T15:56:09;20.00;99.90
23579;DHT22;11967;50.852;4.400;2022-10-16T15:58:35;20.00;99.90
23579;DHT22;11967;50.852;4.400;2022-10-16T16:01:01;20.00;99.90
23579;DHT22;11967;50.852;4.400;2022-10-16T16:03:28;20.00;99.90
23579;DHT22;11967;50.852;4.400;2022-10-16T16:05:54;20.00;99.90
23579;DHT22;11967;50.852;4.400;2022-10-16T16:08:20;19.90;99.90
23579;DHT22;11967;50.852;4.400;2022-10-16T16:10:45;19.90;99.90
23579;DHT22;11967;50.852;4.400;2022-10-16T16:13:11;20.00;99.90
23579;DHT22;11967;50.852;4.400;2022-10-16T16:15:41;19.90;99.90
23579;DHT22;11967;50.852;4.400;2022-10-16T16:18:06;19.90;99.90
23579;DHT22;11967;50.852;4.400;2022-10-16T16:20:34;19.90;99.90
23579;DHT22;11967;50.852;4.400;2022-10-16T16:23:00;19.90;99.90
23579;DHT22;11967;50.852;4.400;2022-10-16T16:25:26;19.90;99.90
23579;DHT22;11967;50.852;4.400;2022-10-16T16:27:51;19.90;99.90
23579;DHT22;11967;50.852;4.400;2022-10-16T16:30:17;19.90;99.90
23579;DHT22;11967;50.852;4.400;2022-10-16T16:32:44;20.00;99.90
23579;DHT22;11967;50.852;4.400;2022-10-16T16:35:10;20.00;99.90
23579;DHT22;11967;50.852;4.400;2022-10-16T16:37:35;20.00;99.90
23579;DHT22;11967;50.852;4.400;2022-10-16T16:40:01;20.00;99.90
23579;DHT22;11967;50.852;4.400;2022-10-16T16:42:28;20.00;99.90
23579;DHT22;11967;50.852;4.400;2022-10-16T16:44:53;19.90;99.90
23579;DHT22;11967;50.852;4.400;2022-10-16T16:47:19;20.00;99.90
23579;DHT22;11967;50.852;4.400;2022-10-16T16:49:45;19.90;99.90
23579;DHT22;11967;50.852;4.400;2022-10-16T16:52:12;19.90;99.90
23579;DHT22;11967;50.852;4.400;2022-10-16T16:54:38;19.90;99.90
23579;DHT22;11967;50.852;4.400;2022-10-16T16:57:04;19.90;99.90
23579;DHT22;11967;50.852;4.400;2022-10-16T16:59:30;19.90;99.90
23579;DHT22;11967;50.852;4.400;2022-10-16T17:02:01;19.90;99.90
23579;DHT22;11967;50.852;4.400;2022-10-16T17:04:27;19.80;99.90
23579;DHT22;11967;50.852;4.400;2022-10-16T17:06:53;19.80;99.90
23579;DHT22;11967;50.852;4.400;2022-10-16T17:09:20;19.70;99.90
23579;DHT22;11967;50.852;4.400;2022-10-16T17:11:46;19.70;99.90
23579;DHT22;11967;50.852;4.400;2022-10-16T17:14:13;19.70;99.90
23579;DHT22;11967;50.852;4.400;2022-10-16T17:16:39;19.70;99.90
23579;DHT22;11967;50.852;4.400;2022-10-16T17:19:12;19.80;99.90
23579;DHT22;11967;50.852;4.400;2022-10-16T17:21:38;19.70;99.90
23579;DHT22;11967;50.852;4.400;2022-10-16T17:24:04;19.70;99.90
23579;DHT22;11967;50.852;4.400;2022-10-16T17:26:30;19.70;99.90
23579;DHT22;11967;50.852;4.400;2022-10-16T17:28:59;19.60;99.90
23579;DHT22;11967;50.852;4.400;2022-10-16T17:31:27;19.70;99.90
23579;DHT22;11967;50.852;4.400;2022-10-16T17:33:53;19.60;99.90
23579;DHT22;11967;50.852;4.400;2022-10-16T17:36:20;19.60;99.90
23579;DHT22;11967;50.852;4.400;2022-10-16T17:38:45;19.50;99.90
23579;DHT22;11967;50.852;4.400;2022-10-16T17:41:19;19.50;99.90
23579;DHT22;11967;50.852;4.400;2022-10-16T17:43:45;19.50;99.90
23579;DHT22;11967;50.852;4.400;2022-10-16T17:46:11;19.50;99.90
23579;DHT22;11967;50.852;4.400;2022-10-16T17:48:39;19.50;99.90
23579;DHT22;11967;50.852;4.400;2022-10-16T17:51:09;19.50;99.90